Terminal Aerodrome Forecast
Issued by NWS

Home | Current Version | Previous Version | Text Only | Print | Product List | Glossary On
Versions: 1 2 3 4 5 6 7 8 9 10 11 12
000
FTUS46 KEKA 022321
TAFUKI
TAF
KUKI 022321Z 0300/0324 VRB05KT P6SM SCT070 BKN100
     FM030300 00000KT P6SM SCT250
     FM030900 00000KT 2SM BR BKN005
     FM031600 VRB03KT P6SM SCT050 SCT200=

USA.gov is the U.S. government's official web portal to all federal, state and local government web resources and services.